createdAt,value
2022-11-15T00:02:54.231Z,23.70
2022-11-15T00:06:04.252Z,26.10
2022-11-15T00:09:09.498Z,35.80
2022-11-15T00:12:15.160Z,16.50
2022-11-15T00:15:20.699Z,22.70
2022-11-15T00:18:26.903Z,28.70
2022-11-15T00:21:32.254Z,46.20
2022-11-15T00:24:37.904Z,19.90
2022-11-15T00:27:43.283Z,14.30
2022-11-15T00:30:48.685Z,23.40
2022-11-15T00:33:54.068Z,18.60
2022-11-15T00:36:59.511Z,18.20
2022-11-15T00:40:05.181Z,16.50
2022-11-15T00:43:10.521Z,25.50
2022-11-15T00:46:15.654Z,24.00
2022-11-15T00:49:21.259Z,25.00
2022-11-15T00:52:26.750Z,19.80
2022-11-15T00:55:32.210Z,12.60
2022-11-15T00:58:37.430Z,17.70
2022-11-15T01:01:42.843Z,73.20
2022-11-15T01:04:48.729Z,20.30
2022-11-15T01:07:56.822Z,23.90
2022-11-15T01:11:05.117Z,17.10
2022-11-15T01:14:11.242Z,16.30
2022-11-15T01:17:16.729Z,8.20
2022-11-15T01:20:22.558Z,16.20
2022-11-15T01:23:28.026Z,16.00
2022-11-15T01:26:34.867Z,24.30
2022-11-15T01:29:46.198Z,20.90
2022-11-15T01:32:52.409Z,20.00
2022-11-15T01:35:58.147Z,22.50
2022-11-15T01:39:04.216Z,19.20
2022-11-15T01:42:16.042Z,14.60
2022-11-15T01:45:21.822Z,18.80
2022-11-15T01:48:33.995Z,15.30
2022-11-15T01:51:40.567Z,14.20
2022-11-15T01:54:48.386Z,13.40
2022-11-15T01:58:00.620Z,19.60
2022-11-15T02:02:05.693Z,9.20
2022-11-15T02:10:27.156Z,16.90
2022-11-15T02:13:33.322Z,46.50
2022-11-15T02:17:01.056Z,14.50
2022-11-15T02:20:20.211Z,20.90
2022-11-15T02:23:45.694Z,17.70
2022-11-15T02:26:54.285Z,20.30
2022-11-15T02:30:15.299Z,15.90
2022-11-15T02:33:42.870Z,18.10
2022-11-15T02:37:01.107Z,22.20
2022-11-15T02:40:25.967Z,11.20
2022-11-15T02:43:59.562Z,21.80
2022-11-15T02:47:15.861Z,8.70
2022-11-15T02:50:22.543Z,13.40
2022-11-15T02:53:30.590Z,18.90
2022-11-15T02:56:36.822Z,12.50
2022-11-15T03:00:00.313Z,15.30
2022-11-15T03:03:28.098Z,11.30
2022-11-15T03:06:43.166Z,11.40
2022-11-15T03:09:48.644Z,18.40
2022-11-15T03:12:59.035Z,13.80
2022-11-15T03:16:07.976Z,13.60
2022-11-15T03:19:32.412Z,10.70
2022-11-15T03:22:40.364Z,14.60
2022-11-15T03:25:47.378Z,14.80
2022-11-15T03:29:03.693Z,27.20
2022-11-15T03:32:12.511Z,16.80
2022-11-15T03:35:20.626Z,7.30
2022-11-15T03:38:27.496Z,10.80
2022-11-15T03:41:44.319Z,18.90
2022-11-15T03:44:55.810Z,16.40
2022-11-15T03:48:04.243Z,14.70
2022-11-15T03:51:09.768Z,15.80
2022-11-15T03:54:15.547Z,12.10
2022-11-15T03:57:21.927Z,16.10
2022-11-15T04:00:28.447Z,18.50
2022-11-15T04:03:34.340Z,14.30
2022-11-15T04:06:40.583Z,10.80
2022-11-15T04:10:04.753Z,17.90
2022-11-15T04:13:10.624Z,17.50
2022-11-15T04:16:17.155Z,17.00
2022-11-15T04:19:42.024Z,14.30
2022-11-15T04:23:06.346Z,16.00
2022-11-15T04:26:15.793Z,12.20
2022-11-15T04:29:36.322Z,13.00
2022-11-15T04:32:42.091Z,14.20
2022-11-15T04:36:07.624Z,20.50
2022-11-15T04:39:13.637Z,16.20
2022-11-15T04:42:19.495Z,16.10
2022-11-15T04:45:25.637Z,20.20
2022-11-15T04:48:31.454Z,18.70
2022-11-15T04:51:37.011Z,16.80
2022-11-15T04:54:43.843Z,16.60
2022-11-15T04:57:57.816Z,15.20
2022-11-15T05:01:15.565Z,10.20
2022-11-15T05:04:21.108Z,17.70
2022-11-15T05:07:26.611Z,13.60
2022-11-15T05:10:32.132Z,16.30
2022-11-15T05:13:37.762Z,21.20
2022-11-15T05:16:44.050Z,10.70
2022-11-15T05:19:50.009Z,14.00
2022-11-15T05:22:56.797Z,25.10
2022-11-15T05:26:08.843Z,18.60
2022-11-15T05:32:21.527Z,15.10
2022-11-15T05:35:32.842Z,19.90
2022-11-15T05:38:38.540Z,23.40
2022-11-15T05:41:47.599Z,21.90
2022-11-15T05:44:53.252Z,14.80
2022-11-15T05:48:00.884Z,15.90
2022-11-15T05:51:07.742Z,10.50
2022-11-15T05:54:13.546Z,13.40
2022-11-15T05:57:19.300Z,21.00
2022-11-15T06:00:25.319Z,13.90
2022-11-15T06:03:31.557Z,16.80
2022-11-15T06:06:37.560Z,12.90
2022-11-15T06:09:43.421Z,17.20
2022-11-15T06:12:56.899Z,20.20
2022-11-15T06:16:02.541Z,16.50
2022-11-15T06:19:08.773Z,15.60
2022-11-15T06:22:14.213Z,18.00
2022-11-15T06:25:19.857Z,27.10
2022-11-15T06:28:25.460Z,9.10
2022-11-15T06:31:31.386Z,10.70
2022-11-15T06:34:37.326Z,21.10
2022-11-15T06:37:43.467Z,23.00
2022-11-15T06:40:49.486Z,17.20
2022-11-15T06:43:55.451Z,18.50
2022-11-15T06:47:01.317Z,20.00
2022-11-15T06:50:07.677Z,22.00
2022-11-15T06:53:13.565Z,24.40
2022-11-15T06:56:19.244Z,18.90
2022-11-15T06:59:26.317Z,15.50
2022-11-15T07:02:32.023Z,25.40
2022-11-15T07:05:37.815Z,26.70
2022-11-15T07:08:44.005Z,32.20
2022-11-15T07:11:49.425Z,12.60
2022-11-15T07:14:55.429Z,13.80
2022-11-15T07:18:04.279Z,47.90
2022-11-15T07:21:11.423Z,17.00
2022-11-15T07:24:17.209Z,15.70
2022-11-15T07:27:23.447Z,22.90
2022-11-15T07:30:29.649Z,19.50
2022-11-15T07:33:35.809Z,21.40
2022-11-15T07:36:41.078Z,25.80
2022-11-15T07:39:46.211Z,26.50
2022-11-15T07:42:54.682Z,37.10
2022-11-15T07:46:00.565Z,24.00
2022-11-15T07:49:06.015Z,30.40
2022-11-15T07:52:11.998Z,43.60
2022-11-15T07:55:17.853Z,26.40
2022-11-15T07:58:23.740Z,22.70
2022-11-15T08:01:29.565Z,18.70
2022-11-15T08:04:35.675Z,33.00
2022-11-15T08:07:41.499Z,18.70
2022-11-15T08:10:46.958Z,18.50
2022-11-15T08:13:52.720Z,23.50
2022-11-15T08:16:58.506Z,29.00
2022-11-15T08:20:04.566Z,32.00
2022-11-15T08:23:11.478Z,26.30
2022-11-15T08:26:17.775Z,27.30
2022-11-15T08:29:23.430Z,33.20
2022-11-15T08:32:29.370Z,20.90
2022-11-15T08:35:35.262Z,18.40
2022-11-15T08:38:41.065Z,14.70
2022-11-15T08:41:47.704Z,38.60
2022-11-15T08:44:53.573Z,23.60
2022-11-15T08:47:59.216Z,63.70
2022-11-15T08:51:04.882Z,36.60
2022-11-15T08:54:10.747Z,29.90
2022-11-15T08:57:16.651Z,28.90
2022-11-15T09:00:22.658Z,54.40
2022-11-15T09:03:28.706Z,33.80
2022-11-15T09:06:34.562Z,42.80
2022-11-15T09:09:40.428Z,34.00
2022-11-15T09:12:49.528Z,46.50
2022-11-15T09:15:58.530Z,49.60
2022-11-15T09:19:10.426Z,41.70
2022-11-15T09:22:17.276Z,49.30
2022-11-15T09:25:23.433Z,50.00
2022-11-15T09:28:30.223Z,78.20
2022-11-15T09:31:36.352Z,53.00
2022-11-15T09:34:42.863Z,54.40
2022-11-15T09:37:56.168Z,43.40
2022-11-15T09:41:12.597Z,48.30
2022-11-15T09:44:41.956Z,57.60
2022-11-15T09:47:47.701Z,42.10
2022-11-15T09:51:01.973Z,47.80
2022-11-15T09:57:15.774Z,42.30
2022-11-15T10:03:17.599Z,39.70
2022-11-15T10:06:05.964Z,39.30
2022-11-15T10:08:55.843Z,32.00
2022-11-15T10:11:42.827Z,33.90
2022-11-15T10:14:30.804Z,33.30
2022-11-15T10:17:17.885Z,34.00
2022-11-15T10:20:09.844Z,30.30
2022-11-15T10:23:16.872Z,28.90
2022-11-15T10:26:08.833Z,27.30
2022-11-15T10:28:55.424Z,25.10
2022-11-15T10:31:42.692Z,29.80
2022-11-15T10:34:29.565Z,28.50
2022-11-15T10:37:27.796Z,27.20
2022-11-15T10:40:24.043Z,28.20
2022-11-15T10:43:10.711Z,28.60
2022-11-15T10:46:39.444Z,29.10
2022-11-15T10:49:21.650Z,31.20
2022-11-15T10:52:20.506Z,24.80
2022-11-15T10:55:13.711Z,27.30
2022-11-15T10:58:04.053Z,25.80
2022-11-15T11:00:53.309Z,29.20
2022-11-15T11:03:42.159Z,35.20
2022-11-15T11:06:29.583Z,34.30
2022-11-15T11:09:31.826Z,27.80
2022-11-15T11:12:27.712Z,34.20
2022-11-15T11:15:16.209Z,29.30
2022-11-15T11:18:16.430Z,26.20
2022-11-15T11:21:12.968Z,26.50
2022-11-15T11:24:01.976Z,51.30
2022-11-15T11:27:03.994Z,39.70
2022-11-15T11:32:52.528Z,24.80
2022-11-15T11:35:45.097Z,29.20
2022-11-15T11:38:35.749Z,30.00
2022-11-15T11:41:39.716Z,28.20
2022-11-15T11:44:26.824Z,26.90
2022-11-15T11:47:18.686Z,29.60
2022-11-15T11:53:11.246Z,54.40
2022-11-15T11:56:10.802Z,34.80
2022-11-15T11:59:20.963Z,29.70
2022-11-15T12:02:21.878Z,34.00
2022-11-15T12:05:12.015Z,26.90
2022-11-15T12:08:21.478Z,27.00
2022-11-15T12:11:11.339Z,26.70
2022-11-15T12:14:00.989Z,26.60
2022-11-15T12:16:47.927Z,31.00
2022-11-15T12:19:36.207Z,24.50
2022-11-15T12:22:29.278Z,24.40
2022-11-15T12:25:21.624Z,23.20
2022-11-15T12:28:18.826Z,42.80
2022-11-15T12:31:07.956Z,30.60
2022-11-15T12:34:01.762Z,32.40
2022-11-15T12:36:52.911Z,32.00
2022-11-15T12:40:03.491Z,23.50
2022-11-15T12:42:57.371Z,25.80
2022-11-15T12:45:45.129Z,21.40
2022-11-15T12:48:41.196Z,26.20
2022-11-15T12:51:43.333Z,20.10
2022-11-15T12:54:33.563Z,21.60
2022-11-15T12:57:20.356Z,22.70
2022-11-15T13:00:16.440Z,23.90
2022-11-15T13:03:20.816Z,25.90
2022-11-15T13:06:08.951Z,23.80
2022-11-15T13:08:55.522Z,23.00
2022-11-15T13:11:47.748Z,24.60
2022-11-15T13:14:37.647Z,22.10
2022-11-15T13:17:35.591Z,28.80
2022-11-15T13:20:29.998Z,27.00
2022-11-15T13:23:17.659Z,30.70
2022-11-15T13:26:13.535Z,27.30
2022-11-15T13:29:01.836Z,31.20
2022-11-15T13:31:50.509Z,27.30
2022-11-15T13:34:54.234Z,31.80
2022-11-15T13:37:42.106Z,32.40
2022-11-15T13:40:31.637Z,29.30
2022-11-15T13:43:29.548Z,28.20
2022-11-15T13:46:19.831Z,28.50
2022-11-15T13:49:11.835Z,29.40
2022-11-15T13:51:59.500Z,27.50
2022-11-15T13:54:48.830Z,27.50
2022-11-15T13:57:44.373Z,31.20
2022-11-15T14:00:34.408Z,26.60
2022-11-15T14:03:23.336Z,28.80
2022-11-15T14:06:16.062Z,31.50
2022-11-15T14:09:12.441Z,30.10
2022-11-15T14:11:59.922Z,31.20
2022-11-15T14:14:47.133Z,31.70
2022-11-15T14:17:35.411Z,27.70
2022-11-15T14:20:29.265Z,26.40
2022-11-15T14:23:26.296Z,32.20
2022-11-15T14:26:33.097Z,36.40
2022-11-15T14:29:26.911Z,30.80
2022-11-15T14:32:15.530Z,38.50
2022-11-15T14:35:03.572Z,41.60
2022-11-15T14:37:51.006Z,44.40
2022-11-15T14:40:43.330Z,51.40
2022-11-15T14:43:30.524Z,40.50
2022-11-15T14:46:17.837Z,48.00
2022-11-15T14:49:05.144Z,45.70
2022-11-15T14:51:57.089Z,68.30
2022-11-15T14:54:49.172Z,68.10
2022-11-15T14:57:41.568Z,52.50
2022-11-15T15:00:35.174Z,42.00
2022-11-15T15:03:48.128Z,37.00
2022-11-15T15:06:35.089Z,37.40
2022-11-15T15:09:26.685Z,34.40
2022-11-15T15:12:21.408Z,35.40
2022-11-15T15:15:17.884Z,39.90
2022-11-15T15:18:10.158Z,41.00
2022-11-15T15:21:04.248Z,45.80
2022-11-15T15:23:56.377Z,32.70
2022-11-15T15:26:48.269Z,39.50
2022-11-15T15:31:03.812Z,34.80
2022-11-15T15:36:42.272Z,35.50
2022-11-15T15:39:28.630Z,43.70
2022-11-15T15:42:21.342Z,39.10
2022-11-15T15:48:00.332Z,35.80
2022-11-15T15:50:48.418Z,36.50
2022-11-15T15:53:40.795Z,38.10
2022-11-15T15:56:29.147Z,33.10
2022-11-15T15:59:21.069Z,43.00
2022-11-15T16:02:13.304Z,38.10
2022-11-15T16:06:41.512Z,40.80
2022-11-15T16:09:51.761Z,36.20
2022-11-15T16:12:39.125Z,38.20
2022-11-15T16:15:44.671Z,42.60
2022-11-15T16:18:36.665Z,46.70
2022-11-15T16:23:21.138Z,83.20
2022-11-15T16:26:19.344Z,62.90
2022-11-15T16:29:11.570Z,54.80
2022-11-15T16:37:30.877Z,65.70
2022-11-15T16:40:28.381Z,52.60
2022-11-15T16:43:20.535Z,68.70
2022-11-15T16:49:01.005Z,67.60
2022-11-15T16:51:53.344Z,83.50
2022-11-15T16:54:45.103Z,56.20
2022-11-15T16:57:36.657Z,54.50
2022-11-15T17:00:23.694Z,52.60
2022-11-15T17:03:10.852Z,47.60
2022-11-15T17:06:02.851Z,67.20
2022-11-15T17:08:49.708Z,63.40
2022-11-15T17:11:42.455Z,55.70
2022-11-15T17:16:05.868Z,59.60
2022-11-15T17:18:58.237Z,47.10
2022-11-15T17:24:37.320Z,49.20
2022-11-15T17:27:29.031Z,44.60
2022-11-15T17:30:21.351Z,48.50
2022-11-15T17:33:13.061Z,52.40
2022-11-15T17:36:07.256Z,60.10
2022-11-15T17:38:59.928Z,61.80
2022-11-15T17:43:24.518Z,70.30
2022-11-15T17:46:19.295Z,131.60
2022-11-15T17:49:11.320Z,79.70
2022-11-15T17:52:02.783Z,61.90
2022-11-15T17:57:44.062Z,50.70
2022-11-15T18:00:31.010Z,66.00
2022-11-15T18:03:17.866Z,46.90
2022-11-15T18:06:09.933Z,80.70
2022-11-15T18:11:41.582Z,79.40
2022-11-15T18:14:33.117Z,75.90
2022-11-15T18:17:19.800Z,84.50
2022-11-15T18:20:06.468Z,92.20
2022-11-15T18:22:58.749Z,83.10
2022-11-15T18:25:54.053Z,80.30
2022-11-15T18:28:47.502Z,92.40
2022-11-15T18:31:41.374Z,63.30
2022-11-15T18:34:37.241Z,76.40
2022-11-15T18:38:56.232Z,109.50
2022-11-15T18:41:48.083Z,172.00
2022-11-15T18:47:31.946Z,187.40
2022-11-15T18:55:51.196Z,124.10
2022-11-15T18:58:38.983Z,110.00
2022-11-15T19:01:38.107Z,175.20
2022-11-15T19:04:24.920Z,168.90
2022-11-15T19:07:16.612Z,140.90
2022-11-15T19:10:08.288Z,120.20
2022-11-15T19:12:59.805Z,71.10
2022-11-15T19:15:56.937Z,93.00
2022-11-15T19:18:49.125Z,100.80
2022-11-15T19:23:07.287Z,92.90
2022-11-15T19:25:59.650Z,99.80
2022-11-15T19:28:52.773Z,84.90
2022-11-15T19:31:44.218Z,85.80
2022-11-15T19:34:36.071Z,81.40
2022-11-15T19:37:27.519Z,87.80
2022-11-15T19:40:20.018Z,98.40
2022-11-15T19:43:13.100Z,122.40
2022-11-15T19:47:35.004Z,126.40
2022-11-15T19:50:21.779Z,127.60
2022-11-15T19:53:14.123Z,117.20
2022-11-15T19:56:02.541Z,110.20
2022-11-15T19:58:55.531Z,89.00
2022-11-15T20:01:47.570Z,99.30
2022-11-15T20:04:39.405Z,114.10
2022-11-15T20:07:30.963Z,137.60
2022-11-15T20:10:22.640Z,136.90
2022-11-15T20:14:47.721Z,149.90
2022-11-15T20:17:39.485Z,139.70
2022-11-15T20:20:31.232Z,152.70
2022-11-15T20:23:23.205Z,133.90
2022-11-15T20:26:10.460Z,112.00
2022-11-15T20:29:03.263Z,137.70
2022-11-15T20:31:55.132Z,133.40
2022-11-15T20:34:51.444Z,135.00
2022-11-15T20:37:40.735Z,148.70
2022-11-15T20:40:27.574Z,125.60
2022-11-15T20:43:15.461Z,134.10
2022-11-15T20:46:07.571Z,78.70
2022-11-15T20:48:59.102Z,132.80
2022-11-15T20:52:01.939Z,153.10
2022-11-15T20:54:53.446Z,147.20
2022-11-15T20:57:45.292Z,147.80
2022-11-15T21:00:37.322Z,121.70
2022-11-15T21:03:29.412Z,119.50
2022-11-15T21:09:14.919Z,118.80
2022-11-15T21:12:11.806Z,134.80
2022-11-15T21:15:04.753Z,162.80
2022-11-15T21:17:56.199Z,160.10
2022-11-15T21:20:49.301Z,168.20
2022-11-15T21:23:41.168Z,220.30
2022-11-15T21:26:32.938Z,184.40
2022-11-15T21:29:24.496Z,203.00
2022-11-15T21:32:17.248Z,205.00
2022-11-15T21:35:04.253Z,162.30
2022-11-15T21:37:57.197Z,108.30
2022-11-15T21:40:44.073Z,139.10
2022-11-15T21:43:35.953Z,170.10
2022-11-15T21:46:29.446Z,155.60
2022-11-15T21:49:22.475Z,122.10
2022-11-15T21:52:14.847Z,100.70
2022-11-15T21:56:30.029Z,149.00
2022-11-15T21:59:22.381Z,90.90
2022-11-15T22:02:15.153Z,104.60
2022-11-15T22:08:15.499Z,70.10
2022-11-15T22:11:02.142Z,85.60
2022-11-15T22:13:49.441Z,67.10
2022-11-15T22:16:41.726Z,90.50
2022-11-15T22:19:29.170Z,74.30
2022-11-15T22:22:21.052Z,95.10
2022-11-15T22:25:12.923Z,91.20
2022-11-15T22:28:09.124Z,87.50
2022-11-15T22:30:57.130Z,95.50
2022-11-15T22:33:49.450Z,94.10
2022-11-15T22:37:13.295Z,80.40
2022-11-15T22:39:57.720Z,95.30
2022-11-15T22:42:50.308Z,104.40
2022-11-15T22:48:35.526Z,104.50
2022-11-15T22:51:27.929Z,80.00
2022-11-15T22:54:20.161Z,93.40
2022-11-15T22:57:06.934Z,79.80
2022-11-15T22:59:54.195Z,96.60
2022-11-15T23:02:49.531Z,85.90
2022-11-15T23:05:43.989Z,97.80
2022-11-15T23:08:35.886Z,111.70
2022-11-15T23:11:57.685Z,94.80
2022-11-15T23:14:49.774Z,109.10
2022-11-15T23:17:42.104Z,139.40
2022-11-15T23:20:42.919Z,106.00
2022-11-15T23:23:36.546Z,140.40
2022-11-15T23:26:29.065Z,109.00
2022-11-15T23:29:21.391Z,89.80
2022-11-15T23:32:32.138Z,86.90
2022-11-15T23:35:26.895Z,141.70
2022-11-15T23:38:18.857Z,199.60
2022-11-15T23:41:10.893Z,166.40
2022-11-15T23:44:03.148Z,148.70
2022-11-15T23:46:59.040Z,168.20
2022-11-15T23:49:47.185Z,119.80
2022-11-15T23:52:39.023Z,130.60
2022-11-15T23:55:30.661Z,116.60
2022-11-15T23:58:22.534Z,115.80
